Time;durP1;ratioP1;P1;durP2;ratioP2;P2;SDS_P1;SDS_P2;PMS_P1;PMS_P2;Temp;Humidity;BMP_temperature;BMP_pressure;BME280_temperature;BME280_humidity;BME280_pressure;Samples;Min_cycle;Max_cycle;Signal;HPM_P1;HPM_P2
2021/03/31 00:01:51;;;;;;;6.53;1.50;;;;;;;12.88;49.12;101326.94;5078641;28;20498;-66
2021/03/31 00:04:19;;;;;;;7.43;1.50;;;;;;;12.87;48.81;101334.00;5087732;28;20048;-67
2021/03/31 00:06:46;;;;;;;12.05;2.33;;;;;;;12.85;49.04;101317.22;5081441;28;20044;-66
2021/03/31 00:09:13;;;;;;;10.68;1.48;;;;;;;12.85;49.73;101319.84;5085836;28;20040;-67
2021/03/31 00:11:40;;;;;;;4.20;1.33;;;;;;;12.85;49.06;101313.66;5072451;28;20043;-66
2021/03/31 00:14:07;;;;;;;4.25;1.70;;;;;;;12.84;46.90;101322.47;5087438;28;20068;-66
2021/03/31 00:16:35;;;;;;;10.82;2.38;;;;;;;12.83;45.37;101305.69;5087269;28;20109;-66
2021/03/31 00:19:04;;;;;;;6.82;2.70;;;;;;;12.84;44.87;101322.47;5079084;28;20055;-66
2021/03/31 00:21:31;;;;;;;6.28;2.20;;;;;;;12.82;45.19;101314.50;5092054;28;20072;-66
2021/03/31 00:23:58;;;;;;;6.55;1.73;;;;;;;12.81;45.90;101310.06;5092881;28;20046;-66
2021/03/31 00:26:25;;;;;;;7.05;1.80;;;;;;;12.77;46.59;101306.50;5091082;28;20398;-67
2021/03/31 00:28:52;;;;;;;5.00;1.55;;;;;;;12.76;46.80;101302.06;5073850;28;20052;-66
2021/03/31 00:31:20;;;;;;;8.27;2.17;;;;;;;12.79;46.95;101301.22;5061328;28;20048;-66
2021/03/31 00:33:46;;;;;;;6.88;1.55;;;;;;;12.83;47.41;101299.50;5072362;28;20056;-67
2021/03/31 00:36:15;;;;;;;6.32;2.40;;;;;;;12.85;48.34;101287.16;5080454;28;20113;-67
2021/03/31 00:38:42;;;;;;;7.90;2.20;;;;;;;12.83;48.80;101294.19;5084539;28;20037;-67
2021/03/31 00:41:09;;;;;;;6.72;2.25;;;;;;;12.78;49.47;101279.13;5073709;28;20056;-66
2021/03/31 00:43:36;;;;;;;7.00;2.40;;;;;;;12.77;49.23;101290.59;5083274;28;20123;-67
2021/03/31 00:46:03;;;;;;;9.38;3.08;;;;;;;12.74;49.35;101287.88;5084165;28;20029;-67
2021/03/31 00:48:30;;;;;;;11.75;3.42;;;;;;;12.71;49.32;101290.50;5077369;28;20060;-67
2021/03/31 00:50:59;;;;;;;9.93;4.13;;;;;;;12.72;49.38;101287.00;5072171;28;20036;-67
2021/03/31 00:53:30;;;;;;;11.85;3.58;;;;;;;12.69;48.88;101275.44;5072838;28;20094;-66
2021/03/31 00:55:58;;;;;;;7.93;3.17;;;;;;;12.63;47.65;101268.28;5082396;28;20045;-67
2021/03/31 00:58:25;;;;;;;10.25;3.15;;;;;;;12.62;46.73;101279.75;5086472;28;20673;-66
2021/03/31 01:00:53;;;;;;;10.95;3.53;;;;;;;12.66;47.17;101264.81;5090149;28;20135;-66
2021/03/31 01:03:20;;;;;;;13.25;4.07;;;;;;;12.66;47.70;101244.50;5091863;28;20042;-67
2021/03/31 01:05:47;;;;;;;12.57;4.10;;;;;;;12.63;47.75;101238.25;5088313;28;20040;-66
2021/03/31 01:08:14;;;;;;;10.40;4.90;;;;;;;12.63;48.15;101243.56;5087336;28;20046;-67
2021/03/31 01:10:44;;;;;;;10.70;4.75;;;;;;;12.67;49.02;101221.53;5091527;28;20036;-67
2021/03/31 01:13:34;;;;;;;9.40;3.20;;;;;;;12.72;50.24;101219.88;5084402;28;20514;-67
2021/03/31 01:16:06;;;;;;;12.57;3.80;;;;;;;12.77;51.09;101204.91;5085043;28;20044;-67
2021/03/31 01:18:38;;;;;;;8.95;3.45;;;;;;;12.76;51.19;101204.03;5089468;28;20036;-67
2021/03/31 01:21:33;;;;;;;7.78;3.17;;;;;;;12.79;51.15;101211.13;5071507;28;20132;-67
2021/03/31 01:24:35;;;;;;;10.75;3.10;;;;;;;12.77;50.69;101203.16;5071431;28;20051;-67
2021/03/31 01:27:08;;;;;;;9.63;2.90;;;;;;;12.71;49.92;101194.25;5075241;28;20129;-67
2021/03/31 01:29:53;;;;;;;14.38;3.67;;;;;;;12.72;49.03;101203.97;5070920;28;20042;-67
2021/03/31 01:32:40;;;;;;;8.10;3.53;;;;;;;12.69;48.28;101194.22;5071229;28;20119;-66
2021/03/31 01:35:09;;;;;;;11.27;3.30;;;;;;;12.68;48.07;101194.19;5072534;28;20043;-67
2021/03/31 01:37:41;;;;;;;9.55;3.70;;;;;;;12.66;48.44;101199.50;5082943;28;20067;-66
2021/03/31 01:40:11;;;;;;;7.78;3.72;;;;;;;12.65;48.70;101187.09;5074905;28;20043;-67
2021/03/31 01:42:41;;;;;;;10.10;3.75;;;;;;;12.67;48.61;101200.34;5085988;28;20049;-66
2021/03/31 01:45:11;;;;;;;10.35;3.33;;;;;;;12.65;48.63;101183.56;5074148;28;20034;-67
2021/03/31 01:47:43;;;;;;;8.40;3.55;;;;;;;12.66;48.98;101174.75;5090661;28;20040;-67
2021/03/31 01:50:12;;;;;;;12.95;3.95;;;;;;;12.65;49.64;101167.66;5089018;28;20501;-67
2021/03/31 01:52:42;;;;;;;11.68;3.45;;;;;;;12.66;49.94;101167.69;5072089;28;20040;-66
2021/03/31 01:55:13;;;;;;;10.95;3.72;;;;;;;12.65;49.99;101157.97;5074950;28;20048;-67
2021/03/31 01:57:40;;;;;;;12.63;3.60;;;;;;;12.67;50.72;101153.56;5070538;28;20040;-67
2021/03/31 02:00:09;;;;;;;12.35;4.68;;;;;;;12.76;51.82;101161.63;5070862;28;20098;-67
2021/03/31 02:02:37;;;;;;;16.38;5.82;;;;;;;12.77;52.06;101155.47;5075849;28;20044;-66
2021/03/31 02:05:10;;;;;;;14.23;4.25;;;;;;;12.76;51.90;101168.69;5075989;28;20068;-67
2021/03/31 02:07:39;;;;;;;10.02;3.22;;;;;;;12.67;51.75;101158.84;5078613;28;20038;-66
2021/03/31 02:10:10;;;;;;;13.27;4.18;;;;;;;12.66;51.45;101195.94;5075963;28;20048;-67
2021/03/31 02:12:39;;;;;;;16.40;4.80;;;;;;;12.61;51.02;101197.63;5075147;28;20542;-67
2021/03/31 02:15:08;;;;;;;8.75;3.65;;;;;;;12.56;50.74;101181.66;5072564;28;20056;-67
2021/03/31 02:17:37;;;;;;;17.42;4.30;;;;;;;12.52;50.14;101194.84;5090050;28;20052;-67
2021/03/31 02:20:06;;;;;;;17.35;3.75;;;;;;;12.50;49.94;101180.69;5089779;28;20040;-66
2021/03/31 02:22:35;;;;;;;11.55;4.35;;;;;;;12.47;50.08;101181.53;5069779;28;20491;-66
2021/03/31 02:25:05;;;;;;;15.00;3.58;;;;;;;12.46;49.53;101177.13;5080194;28;20034;-67
2021/03/31 02:27:32;;;;;;;11.05;3.38;;;;;;;12.46;48.85;101176.22;5070433;28;20127;-67
2021/03/31 02:30:00;;;;;;;12.07;3.25;;;;;;;12.48;48.10;101161.22;5073133;28;20036;-67
2021/03/31 02:32:28;;;;;;;8.77;3.47;;;;;;;12.51;46.98;101170.13;5081140;28;20028;-67
2021/03/31 02:34:57;;;;;;;7.95;2.97;;;;;;;12.53;46.51;101167.50;5081948;28;20074;-67
2021/03/31 02:37:25;;;;;;;9.80;4.18;;;;;;;12.51;46.38;101167.47;5076553;28;20032;-67
2021/03/31 02:39:54;;;;;;;9.98;2.70;;;;;;;12.48;46.42;101166.53;5081416;28;20705;-66
2021/03/31 02:42:25;;;;;;;10.05;2.70;;;;;;;12.46;46.36;101161.22;5071215;28;20097;-67
2021/03/31 02:44:54;;;;;;;14.27;3.78;;;;;;;12.43;46.16;101152.34;5074601;28;20141;-67
2021/03/31 02:47:25;;;;;;;14.68;4.10;;;;;;;12.41;46.29;101176.13;5069480;28;20028;-66
2021/03/31 02:49:58;;;;;;;12.27;4.88;;;;;;;12.41;46.39;101162.91;5076269;28;20036;-67
2021/03/31 02:52:25;;;;;;;13.23;3.70;;;;;;;12.39;46.86;101175.25;5087205;28;20040;-66
2021/03/31 02:54:53;;;;;;;13.15;3.22;;;;;;;12.34;47.34;101166.31;5080632;28;20066;-67
2021/03/31 02:57:24;;;;;;;9.15;3.65;;;;;;;12.36;47.25;101160.19;5068666;28;20128;-67
2021/03/31 02:59:52;;;;;;;10.85;2.90;;;;;;;12.34;47.26;101176.91;5088806;28;20119;-67
2021/03/31 03:02:20;;;;;;;11.43;3.75;;;;;;;12.33;47.21;101146.03;5070914;28;20047;-67
2021/03/31 03:04:48;;;;;;;14.07;3.25;;;;;;;12.32;46.97;101157.50;5074328;28;20044;-67
2021/03/31 03:07:16;;;;;;;13.45;3.20;;;;;;;12.28;47.26;101161.84;5069189;28;20097;-67
2021/03/31 03:09:45;;;;;;;16.05;4.97;;;;;;;12.25;46.96;101142.38;5069655;28;20028;-67
2021/03/31 03:12:13;;;;;;;12.15;3.47;;;;;;;12.23;46.50;101142.34;5069326;28;20036;-67
2021/03/31 03:14:44;;;;;;;8.20;2.85;;;;;;;12.20;46.47;101136.13;5080232;28;20119;-67
2021/03/31 03:17:11;;;;;;;5.93;2.50;;;;;;;12.18;46.04;101122.88;5069558;28;20036;-67
2021/03/31 03:19:38;;;;;;;9.93;2.78;;;;;;;12.17;46.50;101139.63;5074903;28;20435;-67
2021/03/31 03:22:07;;;;;;;14.73;5.00;;;;;;;12.15;46.43;101144.00;5089353;28;20371;-67
2021/03/31 03:24:36;;;;;;;12.10;3.70;;;;;;;12.12;46.62;101136.03;5077061;28;20041;-67
2021/03/31 03:27:05;;;;;;;11.80;3.70;;;;;;;12.08;46.43;101131.53;5069883;28;20036;-67
2021/03/31 03:29:32;;;;;;;10.65;3.95;;;;;;;12.05;46.64;101120.03;5078927;28;20111;-67
2021/03/31 03:32:01;;;;;;;10.57;3.75;;;;;;;12.05;46.60;101109.44;5069835;28;20445;-66
2021/03/31 03:34:29;;;;;;;9.23;3.40;;;;;;;12.05;46.39;101101.50;5078139;28;20036;-66
2021/03/31 03:36:56;;;;;;;7.07;3.05;;;;;;;12.03;45.98;101090.00;5088992;28;20518;-67
2021/03/31 03:39:23;;;;;;;14.90;4.18;;;;;;;12.05;45.96;101093.56;5090110;28;20039;-67
2021/03/31 03:41:50;;;;;;;8.45;3.42;;;;;;;12.02;46.41;101101.44;5083226;28;20562;-67
2021/03/31 03:44:17;;;;;;;15.38;3.17;;;;;;;12.00;46.40;101092.59;5088768;28;20101;-67
2021/03/31 03:46:46;;;;;;;8.57;3.35;;;;;;;11.96;46.80;101097.84;5074396;28;20045;-67
2021/03/31 03:49:14;;;;;;;9.20;3.25;;;;;;;11.94;47.25;101102.25;5077285;28;20071;-66
2021/03/31 03:51:41;;;;;;;7.78;3.20;;;;;;;11.93;47.38;101094.28;5074414;28;20032;-66
2021/03/31 03:54:11;;;;;;;9.57;3.58;;;;;;;11.94;47.60;101088.13;5085937;28;20070;-66
2021/03/31 03:56:38;;;;;;;7.68;3.42;;;;;;;11.95;47.77;101092.50;5093055;28;20032;-66
2021/03/31 03:59:19;;;;;;;11.43;4.18;;;;;;;12.01;47.86;101089.09;5093206;28;20529;-66
2021/03/31 04:01:46;;;;;;;9.38;3.78;;;;;;;11.99;47.85;101083.78;5076406;28;20107;-67
2021/03/31 04:04:14;;;;;;;10.85;4.28;;;;;;;12.02;47.66;101081.16;5076533;28;20050;-67
2021/03/31 04:06:41;;;;;;;9.57;3.72;;;;;;;12.01;47.63;101082.06;5091916;28;20495;-66
2021/03/31 04:09:08;;;;;;;10.80;3.67;;;;;;;12.00;47.92;101084.69;5075381;28;20048;-67
2021/03/31 04:11:38;;;;;;;9.63;3.13;;;;;;;11.97;48.00;101086.41;5086663;28;20119;-67
2021/03/31 04:14:06;;;;;;;10.32;3.20;;;;;;;11.95;47.38;101090.75;5091614;28;20063;-67
2021/03/31 04:16:35;;;;;;;11.90;3.38;;;;;;;11.93;47.05;101105.75;5089451;28;20489;-66
2021/03/31 04:19:04;;;;;;;8.68;3.40;;;;;;;11.93;46.51;101113.69;5092643;28;20166;-66
2021/03/31 04:21:35;;;;;;;11.27;3.72;;;;;;;11.96;46.32;101126.06;5072254;28;20037;-67
2021/03/31 04:24:02;;;;;;;8.85;3.45;;;;;;;11.94;46.24;101130.44;5073611;28;20086;-66
2021/03/31 04:27:20;;;;;;;8.30;3.08;;;;;;;11.93;46.03;101149.84;5085130;28;20138;-67
2021/03/31 04:29:48;;;;;;;6.07;2.10;;;;;;;11.96;45.46;101150.75;5086249;28;20032;-66
2021/03/31 04:32:17;;;;;;;7.60;2.85;;;;;;;12.05;45.53;101150.03;5090392;28;20042;-67
2021/03/31 04:34:45;;;;;;;10.85;3.45;;;;;;;12.12;45.94;101157.19;5088375;28;20040;-66
2021/03/31 04:37:15;;;;;;;17.27;4.45;;;;;;;12.21;46.49;101159.06;5081319;28;20130;-66
2021/03/31 04:39:42;;;;;;;8.00;3.72;;;;;;;12.33;47.32;101156.63;5092308;28;20085;-67
2021/03/31 04:42:11;;;;;;;11.32;4.18;;;;;;;12.46;47.58;101155.03;5084178;28;20042;-67
2021/03/31 04:44:38;;;;;;;10.23;3.63;;;;;;;12.61;47.61;101134.94;5071866;28;20062;-67
2021/03/31 04:47:06;;;;;;;9.90;4.22;;;;;;;12.64;47.74;101150.88;5088714;28;20032;-68
2021/03/31 04:49:33;;;;;;;11.88;4.00;;;;;;;12.59;47.72;101149.06;5074031;28;20040;-67
2021/03/31 04:52:00;;;;;;;12.55;4.35;;;;;;;12.58;47.83;101132.28;5092412;28;20143;-67
2021/03/31 04:54:28;;;;;;;11.25;4.07;;;;;;;12.63;47.96;101130.56;5078873;28;20058;-71
2021/03/31 04:56:55;;;;;;;12.02;3.60;;;;;;;12.81;47.73;101102.50;5083132;28;20124;-67
2021/03/31 04:59:22;;;;;;;13.23;5.32;;;;;;;12.92;47.78;101111.50;5071401;28;20044;-67
2021/03/31 05:01:49;;;;;;;16.10;5.68;;;;;;;12.96;47.66;101094.75;5072967;28;20124;-66
2021/03/31 05:04:16;;;;;;;11.43;4.07;;;;;;;12.91;47.48;101073.50;5071518;28;20040;-67
2021/03/31 05:06:43;;;;;;;11.90;3.65;;;;;;;12.87;47.13;101070.78;5072404;28;20036;-66
2021/03/31 05:09:10;;;;;;;10.95;3.25;;;;;;;12.88;47.08;101062.88;5072045;28;20067;-68
2021/03/31 05:11:38;;;;;;;9.10;3.60;;;;;;;12.89;46.97;101062.00;5072676;28;20036;-67
2021/03/31 05:14:06;;;;;;;10.13;3.40;;;;;;;13.03;47.04;101065.69;5077597;28;20036;-67
2021/03/31 05:16:33;;;;;;;12.43;3.88;;;;;;;13.27;46.94;101066.81;5087836;28;20042;-67
2021/03/31 05:19:00;;;;;;;11.27;4.32;;;;;;;13.33;47.28;101057.16;5091254;28;20042;-66
2021/03/31 05:21:27;;;;;;;11.65;3.72;;;;;;;13.29;47.29;101036.81;5072762;28;20522;-67
2021/03/31 05:23:54;;;;;;;15.70;3.47;;;;;;;13.20;47.26;101039.38;5072491;28;20040;-67
2021/03/31 05:26:21;;;;;;;9.95;3.70;;;;;;;13.20;47.23;101073.81;5073543;28;20051;-67
2021/03/31 05:28:50;;;;;;;11.23;4.10;;;;;;;13.15;46.73;101068.50;5091538;28;20494;-67
2021/03/31 05:31:16;;;;;;;13.68;4.47;;;;;;;13.10;46.52;101088.72;5083003;28;20071;-67
2021/03/31 05:33:44;;;;;;;11.13;4.03;;;;;;;13.08;46.64;101089.56;5084192;28;20190;-67
2021/03/31 05:36:12;;;;;;;10.65;3.70;;;;;;;13.06;46.81;101091.34;5086698;28;20131;-68
2021/03/31 05:38:39;;;;;;;8.38;4.70;;;;;;;13.07;47.00;101061.28;5089138;28;20039;-66
2021/03/31 05:41:06;;;;;;;10.18;4.85;;;;;;;13.05;47.26;101108.13;5077988;28;20036;-67
2021/03/31 05:43:34;;;;;;;16.98;4.32;;;;;;;13.08;47.68;101100.19;5088524;28;20038;-66
2021/03/31 05:46:02;;;;;;;12.13;4.47;;;;;;;13.13;48.28;101114.41;5079685;28;20041;-67
2021/03/31 05:48:30;;;;;;;14.05;5.10;;;;;;;13.10;48.83;101109.94;5068976;28;20127;-67
2021/03/31 05:51:00;;;;;;;11.50;3.92;;;;;;;13.12;48.82;101133.81;5071895;28;20043;-67
2021/03/31 05:53:27;;;;;;;17.90;4.95;;;;;;;12.93;50.40;101145.09;5074640;28;20052;-67
2021/03/31 05:55:54;;;;;;;14.32;7.68;;;;;;;11.40;59.46;101143.59;5090798;28;20047;-68
2021/03/31 05:58:22;;;;;;;12.10;5.15;;;;;;;10.61;65.40;101166.66;5088563;28;20496;-67
2021/03/31 06:00:52;;;;;;;18.42;4.93;;;;;;;10.32;68.15;101166.00;5080948;28;20045;-66
2021/03/31 06:03:22;;;;;;;16.25;5.63;;;;;;;10.36;69.01;101180.16;5071029;28;20036;-66
2021/03/31 06:05:51;;;;;;;9.45;4.07;;;;;;;10.32;69.49;101187.09;5076003;28;20506;-66
2021/03/31 06:08:18;;;;;;;10.10;4.03;;;;;;;10.64;68.64;101186.94;5090273;28;20040;-66
2021/03/31 06:10:45;;;;;;;9.20;4.35;;;;;;;11.01;67.61;101181.59;5088683;28;20084;-66
2021/03/31 06:13:14;;;;;;;9.43;5.82;;;;;;;11.62;66.47;101163.38;5077533;28;20398;-66
2021/03/31 06:15:45;;;;;;;10.15;4.05;;;;;;;12.35;63.42;101182.25;5076856;28;20039;-66
2021/03/31 06:18:14;;;;;;;11.02;6.80;;;;;;;12.84;61.48;101179.41;5068647;28;20064;-67
2021/03/31 06:21:00;;;;;;;9.80;4.13;;;;;;;12.98;58.92;101170.75;5076823;28;20407;-66
2021/03/31 06:26:20;;;;;;;5.72;2.75;;;;;;;13.68;55.70;101152.97;5089607;28;20043;-67
2021/03/31 06:28:54;;;;;;;9.80;4.03;;;;;;;14.04;53.98;101135.59;5088515;28;20051;-66
2021/03/31 06:31:21;;;;;;;5.97;2.10;;;;;;;14.49;52.35;101133.28;5083927;28;20357;-67
2021/03/31 06:33:49;;;;;;;8.70;2.80;;;;;;;14.45;50.93;101134.13;5086601;28;20032;-66
2021/03/31 06:36:32;;;;;;;7.68;3.55;;;;;;;14.12;50.93;101126.78;5069672;28;20072;-67
2021/03/31 06:38:59;;;;;;;4.72;2.38;;;;;;;13.87;50.76;101130.13;5070000;28;20037;-67
2021/03/31 06:41:29;;;;;;;4.57;2.10;;;;;;;14.19;50.20;101125.94;5069573;28;20098;-67
2021/03/31 06:44:09;;;;;;;5.65;3.10;;;;;;;14.63;49.58;101122.72;5086269;28;20066;-67
2021/03/31 06:46:44;;;;;;;6.93;2.55;;;;;;;14.97;48.93;101132.56;5075175;28;20036;-67
2021/03/31 06:49:11;;;;;;;4.88;2.40;;;;;;;14.83;49.03;101129.00;5080269;28;20044;-68
2021/03/31 06:51:40;;;;;;;7.22;2.50;;;;;;;14.59;49.78;101120.91;5088307;28;20050;-67
2021/03/31 06:54:15;;;;;;;6.55;2.83;;;;;;;14.80;49.83;101113.03;5076875;28;20123;-67
2021/03/31 06:56:45;;;;;;;8.43;3.00;;;;;;;14.96;49.41;101122.84;5085933;28;20493;-67
2021/03/31 06:59:12;;;;;;;6.53;3.40;;;;;;;15.05;48.88;101125.53;5089180;28;20036;-68
2021/03/31 07:01:40;;;;;;;10.85;3.75;;;;;;;14.86;49.88;101114.81;5087985;28;20046;-67
2021/03/31 07:04:08;;;;;;;15.55;3.72;;;;;;;13.66;55.91;101152.06;5072055;28;20044;-67
2021/03/31 07:06:35;;;;;;;10.85;4.35;;;;;;;12.83;60.09;101167.91;5081519;28;20044;-67
2021/03/31 07:09:19;;;;;;;9.07;4.20;;;;;;;12.49;60.70;101165.66;5090136;28;20032;-66
2021/03/31 07:11:46;;;;;;;7.95;3.30;;;;;;;12.57;60.07;101179.91;5073429;28;20426;-67
2021/03/31 07:14:13;;;;;;;7.45;3.50;;;;;;;12.77;60.04;101183.72;5078949;28;20042;-67
2021/03/31 07:16:42;;;;;;;7.32;3.58;;;;;;;13.00;58.25;101197.25;5085697;28;20120;-67
2021/03/31 07:19:10;;;;;;;3.97;2.20;;;;;;;12.70;58.12;101193.34;5077992;28;20469;-67
2021/03/31 07:21:39;;;;;;;4.72;3.10;;;;;;;12.75;57.90;101190.75;5084890;28;20131;-67
2021/03/31 07:24:09;;;;;;;9.25;4.15;;;;;;;12.96;56.73;101190.16;5076185;28;20111;-67
2021/03/31 07:27:26;;;;;;;5.57;3.15;;;;;;;13.01;56.50;101173.44;5076768;28;20678;-67
2021/03/31 07:30:10;;;;;;;13.07;3.78;;;;;;;13.12;56.40;101174.50;5089325;28;20123;-67
2021/03/31 07:32:44;;;;;;;10.93;3.42;;;;;;;13.31;55.96;101170.28;5075964;28;20161;-67
2021/03/31 07:35:12;;;;;;;10.93;3.50;;;;;;;13.41;55.58;101172.16;5075211;28;20489;-68
2021/03/31 07:37:40;;;;;;;6.30;4.18;;;;;;;13.56;55.44;101163.47;5082508;28;20036;-67
2021/03/31 07:40:11;;;;;;;16.25;4.25;;;;;;;13.82;54.87;101163.72;5088681;28;20064;-67
2021/03/31 07:42:43;;;;;;;10.60;3.65;;;;;;;14.23;54.18;101154.31;5086124;28;20044;-67
2021/03/31 07:45:13;;;;;;;8.05;2.65;;;;;;;14.41;54.00;101147.38;5083143;28;20437;-69
2021/03/31 07:47:41;;;;;;;8.68;3.30;;;;;;;14.48;53.41;101166.03;5080336;28;20398;-68
2021/03/31 07:50:11;;;;;;;7.75;2.70;;;;;;;14.39;52.84;101170.38;5086474;28;20047;-67
2021/03/31 07:52:53;;;;;;;7.00;2.75;;;;;;;14.23;51.75;101175.56;5073120;28;20101;-67
2021/03/31 07:55:34;;;;;;;6.00;1.58;;;;;;;14.04;51.42;101175.41;5080240;28;20037;-68
2021/03/31 07:58:26;;;;;;;2.90;1.52;;;;;;;14.00;50.56;101187.75;5081768;28;20410;-67
2021/03/31 08:01:04;;;;;;;7.70;3.08;;;;;;;13.69;50.95;101198.97;5088098;28;20066;-68
2021/03/31 08:03:33;;;;;;;10.30;3.40;;;;;;;12.99;54.98;101200.81;5086791;28;20048;-68
2021/03/31 08:06:21;;;;;;;9.35;3.35;;;;;;;12.16;59.07;101198.72;5088134;28;20482;-67
2021/03/31 08:08:59;;;;;;;6.82;2.88;;;;;;;11.46;64.20;101218.59;5069175;28;20036;-68
2021/03/31 08:12:02;;;;;;;11.85;4.40;;;;;;;11.41;65.72;101216.72;5069040;28;20537;-67
2021/03/31 08:14:46;;;;;;;9.60;3.97;;;;;;;11.53;66.51;101204.63;5076136;28;20036;-68
2021/03/31 08:17:15;;;;;;;9.60;5.20;;;;;;;11.66;65.97;101205.75;5088102;28;20036;-68
2021/03/31 08:19:44;;;;;;;10.48;4.47;;;;;;;11.90;66.07;101207.97;5084587;28;20345;-67
2021/03/31 08:22:37;;;;;;;11.65;3.97;;;;;;;11.94;66.07;101202.78;5088009;28;20111;-69
2021/03/31 08:25:17;;;;;;;11.32;4.97;;;;;;;12.08;66.33;101195.03;5070274;28;20573;-68
2021/03/31 08:28:05;;;;;;;8.98;4.18;;;;;;;12.27;66.89;101197.09;5088860;28;20048;-68
2021/03/31 08:30:39;;;;;;;7.65;3.08;;;;;;;12.77;66.59;101181.97;5086048;28;20082;-67
2021/03/31 08:33:06;;;;;;;4.90;2.00;;;;;;;12.65;66.86;101197.69;5079886;28;20497;-68
2021/03/31 08:35:34;;;;;;;10.43;2.90;;;;;;;12.72;66.73;101181.03;5090079;28;20043;-67
2021/03/31 08:38:04;;;;;;;8.95;2.97;;;;;;;12.84;65.42;101174.09;5091650;28;20059;-67
2021/03/31 08:40:33;;;;;;;14.27;4.93;;;;;;;13.13;65.72;101159.47;5091483;28;20109;-68
2021/03/31 08:43:02;;;;;;;12.65;6.70;;;;;;;13.72;67.29;101153.91;5086506;28;20037;-67
2021/03/31 08:45:33;;;;;;;9.15;2.45;;;;;;;14.15;67.12;101153.38;5090401;28;20489;-67
2021/03/31 08:48:01;;;;;;;5.40;2.40;;;;;;;14.75;65.49;101136.94;5090768;28;20036;-67
2021/03/31 08:50:33;;;;;;;6.93;3.05;;;;;;;14.93;66.28;101145.88;5087461;28;20037;-67
2021/03/31 08:53:08;;;;;;;7.18;2.40;;;;;;;14.92;66.66;101141.44;5076219;28;20121;-67
2021/03/31 08:55:37;;;;;;;7.15;2.08;;;;;;;14.87;66.84;101141.41;5091081;28;20043;-67
2021/03/31 08:58:11;;;;;;;4.85;2.33;;;;;;;14.97;65.75;101132.56;5089836;28;20039;-67
2021/03/31 09:00:46;;;;;;;9.32;2.90;;;;;;;15.20;64.52;101134.44;5088708;28;20044;-67
2021/03/31 09:03:13;;;;;;;10.23;5.35;;;;;;;15.19;64.97;101135.31;5091948;28;20067;-67
2021/03/31 09:05:53;;;;;;;8.82;3.97;;;;;;;14.86;64.93;101130.78;5088580;28;20645;-67
2021/03/31 09:08:22;;;;;;;8.57;3.33;;;;;;;14.32;65.10;101130.47;5091864;28;20050;-66
2021/03/31 09:11:01;;;;;;;10.57;6.35;;;;;;;13.50;65.44;101147.50;5091053;28;20526;-67
2021/03/31 09:13:35;;;;;;;13.15;5.20;;;;;;;12.73;66.81;101134.25;5090188;28;20123;-67
2021/03/31 09:16:09;;;;;;;10.48;3.40;;;;;;;12.55;67.53;101150.75;5072105;28;20048;-67
2021/03/31 09:18:40;;;;;;;8.73;3.13;;;;;;;12.72;66.91;101149.25;5085240;28;20082;-67
2021/03/31 09:21:08;;;;;;;8.38;2.53;;;;;;;13.27;67.41;101160.50;5090936;28;20256;-67
2021/03/31 09:23:36;;;;;;;11.25;4.10;;;;;;;13.90;68.96;101143.44;5088885;28;20032;-67
2021/03/31 09:26:05;;;;;;;5.82;2.40;;;;;;;14.49;69.30;101135.03;5089564;28;20123;-67
2021/03/31 09:28:33;;;;;;;5.10;2.00;;;;;;;14.66;68.31;101125.38;5088415;28;20174;-64
2021/03/31 09:31:07;;;;;;;8.88;2.50;;;;;;;14.55;67.31;101133.31;5082264;28;20491;-64
2021/03/31 09:33:35;;;;;;;9.15;2.25;;;;;;;14.35;66.50;101130.50;5085385;28;20039;-64
2021/03/31 09:36:13;;;;;;;11.38;3.00;;;;;;;14.10;66.26;101144.50;5081456;28;20040;-66
2021/03/31 09:38:40;;;;;;;11.23;4.13;;;;;;;13.91;66.36;101145.22;5071264;28;20127;-66
2021/03/31 09:41:08;;;;;;;8.48;2.97;;;;;;;14.07;65.76;101148.88;5080235;28;20042;-66
2021/03/31 09:43:36;;;;;;;7.53;1.90;;;;;;;14.07;64.84;101151.53;5081018;28;20036;-66
2021/03/31 09:46:04;;;;;;;6.25;2.35;;;;;;;14.01;63.88;101157.69;5085334;28;20178;-66
2021/03/31 09:48:31;;;;;;;6.22;1.83;;;;;;;14.10;62.64;101141.84;5080959;28;20040;-67
2021/03/31 09:50:58;;;;;;;7.75;2.33;;;;;;;14.16;61.60;101141.88;5090550;28;20132;-66
2021/03/31 09:53:26;;;;;;;6.90;2.13;;;;;;;14.19;61.23;101152.50;5085620;28;20119;-67
2021/03/31 09:55:54;;;;;;;9.23;2.67;;;;;;;14.23;61.07;101153.44;5077166;28;20079;-66
2021/03/31 09:58:23;;;;;;;8.50;2.47;;;;;;;14.21;61.38;101152.53;5089919;28;20036;-67
2021/03/31 10:00:52;;;;;;;8.95;2.42;;;;;;;14.21;61.47;101156.06;5081438;28;20037;-67
2021/03/31 10:03:20;;;;;;;9.13;2.92;;;;;;;14.20;61.52;101154.28;5072327;28;20521;-67
2021/03/31 10:05:47;;;;;;;5.38;2.60;;;;;;;14.17;61.75;101151.63;5086114;28;20043;-67
2021/03/31 10:08:22;;;;;;;9.32;2.67;;;;;;;14.20;60.88;101148.09;5088733;28;20135;-67
2021/03/31 10:10:50;;;;;;;7.15;2.17;;;;;;;14.31;60.40;101141.97;5086617;28;20043;-66
2021/03/31 10:13:19;;;;;;;5.60;1.92;;;;;;;14.64;59.75;101132.44;5085364;28;20044;-67
2021/03/31 10:15:57;;;;;;;7.32;2.08;;;;;;;14.71;59.24;101132.47;5083160;28;20087;-67
2021/03/31 10:18:26;;;;;;;4.93;2.28;;;;;;;15.01;58.83;101133.50;5089427;28;20675;-67
2021/03/31 10:20:53;;;;;;;4.47;1.50;;;;;;;15.36;58.07;101129.13;5089977;28;20124;-67
2021/03/31 10:23:27;;;;;;;6.50;2.00;;;;;;;15.26;57.16;101139.78;5077387;28;20416;-68
2021/03/31 10:26:17;;;;;;;5.20;2.10;;;;;;;15.19;56.29;101132.66;5087018;28;20414;-67
2021/03/31 10:28:44;;;;;;;6.28;2.10;;;;;;;15.10;55.69;101142.38;5072346;28;21881;-67
2021/03/31 10:31:19;;;;;;;7.53;3.72;;;;;;;15.57;55.12;101143.41;5079886;28;20075;-68
2021/03/31 10:33:48;;;;;;;3.60;1.70;;;;;;;16.06;54.44;101144.31;5077774;28;20119;-67
2021/03/31 10:36:46;;;;;;;7.72;2.83;;;;;;;15.95;53.63;101139.88;5089077;28;20039;-68
2021/03/31 10:39:44;;;;;;;14.23;6.88;;;;;;;15.61;53.83;101142.53;5087575;28;20044;-67
2021/03/31 10:50:31;;;;;;;7.00;3.35;;;;;;;13.68;60.99;101142.38;5081554;28;20387;-66
2021/03/31 10:52:59;;;;;;;6.75;3.75;;;;;;;13.67;60.89;101140.59;5084108;28;20040;-66
2021/03/31 10:55:27;;;;;;;12.02;4.30;;;;;;;13.70;61.33;101140.63;5079188;28;20040;-66
2021/03/31 10:57:55;;;;;;;5.60;2.63;;;;;;;13.76;61.22;101134.47;5086334;28;20439;-66
2021/03/31 11:00:22;;;;;;;8.10;2.42;;;;;;;13.86;60.53;101139.84;5088323;28;20666;-66
2021/03/31 11:02:49;;;;;;;5.35;2.22;;;;;;;13.43;60.99;101146.56;5089314;28;20050;-67
2021/03/31 11:05:16;;;;;;;5.40;1.92;;;;;;;13.29;61.16;101148.16;5087404;28;20127;-68
2021/03/31 11:07:44;;;;;;;4.60;2.25;;;;;;;13.04;61.52;101165.53;5088967;28;20048;-67
2021/03/31 11:10:12;;;;;;;6.97;2.85;;;;;;;12.93;62.10;101184.84;5089850;28;20044;-68
2021/03/31 11:12:39;;;;;;;6.13;2.45;;;;;;;12.69;62.77;101190.66;5082602;28;20036;-68
2021/03/31 11:15:10;;;;;;;12.10;3.25;;;;;;;12.26;64.35;101178.59;5086956;28;20040;-70
2021/03/31 11:17:42;;;;;;;11.25;5.18;;;;;;;11.79;67.40;101183.09;5088929;28;20044;-70
2021/03/31 11:20:22;;;;;;;13.32;5.80;;;;;;;11.27;69.88;101184.75;5089348;28;20040;-70
2021/03/31 11:25:41;;;;;;;14.93;7.97;;;;;;;11.20;70.92;101182.84;5080632;28;20039;-69
2021/03/31 11:28:09;;;;;;;19.83;13.18;;;;;;;11.00;71.59;101173.63;5086831;28;20086;-69
2021/03/31 11:30:36;;;;;;;15.00;8.45;;;;;;;11.38;71.16;101159.41;5079870;28;20122;-68
2021/03/31 11:33:03;;;;;;;13.45;7.30;;;;;;;11.86;70.88;101155.88;5081204;28;20046;-69
2021/03/31 11:35:31;;;;;;;9.57;6.50;;;;;;;12.26;69.83;101157.41;5078134;28;20054;-69
2021/03/31 11:37:59;;;;;;;7.85;5.03;;;;;;;12.31;69.60;101153.94;5080232;28;20510;-70
2021/03/31 11:40:26;;;;;;;7.22;3.67;;;;;;;12.40;68.75;101145.25;5080156;28;20120;-69
2021/03/31 11:42:53;;;;;;;7.25;3.28;;;;;;;12.38;68.12;101134.66;5071039;28;20051;-69
2021/03/31 11:45:20;;;;;;;13.02;6.07;;;;;;;12.13;68.08;101128.97;5077995;28;20036;-69
2021/03/31 11:47:47;;;;;;;17.95;12.27;;;;;;;11.77;68.50;101150.44;5075732;28;20058;-69
2021/03/31 11:50:15;;;;;;;6.65;4.35;;;;;;;11.39;71.02;101181.44;5076825;28;20036;-72
2021/03/31 11:52:44;;;;;;;15.20;5.43;;;;;;;9.56;72.87;101182.53;5077811;28;20195;-71